createdAt,value
2018-09-28T00:00:05.085Z,100417.03
2018-09-28T00:02:34.713Z,100411.96
2018-09-28T00:05:04.457Z,100412.69
2018-09-28T00:07:34.087Z,100409.47
2018-09-28T00:10:03.786Z,100417.38
2018-09-28T00:12:33.412Z,100407.64
2018-09-28T00:15:03.081Z,100408.38
2018-09-28T00:17:32.720Z,100401.14
2018-09-28T00:20:02.392Z,100404.15
2018-09-28T00:22:32.037Z,100405.44
2018-09-28T00:25:01.703Z,100397.39
2018-09-28T00:27:31.340Z,100398.66
2018-09-28T00:30:00.991Z,100401.92
2018-09-28T00:32:30.634Z,100399.06
2018-09-28T00:35:00.284Z,100394.58
2018-09-28T00:37:29.917Z,100388.06
2018-09-28T00:39:59.573Z,100380.66
2018-09-28T00:42:29.232Z,100374.50
2018-09-28T00:44:58.888Z,100374.59
2018-09-28T00:47:28.536Z,100371.10
2018-09-28T00:49:58.205Z,100368.27
2018-09-28T00:52:27.841Z,100368.09
2018-09-28T00:54:57.524Z,100370.92
2018-09-28T00:57:27.189Z,100374.05
2018-09-28T00:59:56.844Z,100369.63
2018-09-28T01:02:26.461Z,100370.62
2018-09-28T01:04:56.135Z,100371.27
2018-09-28T01:07:25.776Z,100368.87
2018-09-28T01:09:55.428Z,100371.05
2018-09-28T01:12:25.052Z,100370.22
2018-09-28T01:14:54.700Z,100373.19
2018-09-28T01:17:24.349Z,100373.38
2018-09-28T01:19:54.105Z,100375.77
2018-09-28T01:22:23.745Z,100380.98
2018-09-28T01:24:53.393Z,100375.44
2018-09-28T01:27:23.067Z,100385.89
2018-09-28T01:29:52.761Z,100392.91
2018-09-28T01:32:22.414Z,100383.70
2018-09-28T01:34:52.098Z,100387.27
2018-09-28T01:37:21.780Z,100381.74
2018-09-28T01:39:51.485Z,100384.59
2018-09-28T01:42:21.136Z,100387.16
2018-09-28T01:44:50.773Z,100390.58
2018-09-28T01:47:20.421Z,100391.92
2018-09-28T01:49:50.077Z,100393.88
2018-09-28T01:52:19.713Z,100397.42
2018-09-28T01:54:49.381Z,100392.45
2018-09-28T01:57:19.045Z,100394.20
2018-09-28T01:59:48.721Z,100400.73
2018-09-28T02:02:18.361Z,100393.84
2018-09-28T02:04:48.008Z,100399.87
2018-09-28T02:07:17.635Z,100395.95
2018-09-28T02:09:47.294Z,100399.02
2018-09-28T02:12:16.944Z,100397.52
2018-09-28T02:14:46.584Z,100402.94
2018-09-28T02:17:16.225Z,100402.27
2018-09-28T02:19:45.874Z,100404.49
2018-09-28T02:22:15.532Z,100407.42
2018-09-28T02:24:45.241Z,100407.45
2018-09-28T02:27:14.903Z,100411.50
2018-09-28T02:29:44.553Z,100411.70
2018-09-28T02:32:14.193Z,100413.07
2018-09-28T02:34:43.845Z,100406.72
2018-09-28T02:37:13.477Z,100411.94
2018-09-28T02:39:43.145Z,100402.08
2018-09-28T02:42:12.781Z,100402.58
2018-09-28T02:44:42.435Z,100405.26
2018-09-28T02:47:12.072Z,100406.78
2018-09-28T02:49:41.749Z,100409.66
2018-09-28T02:52:11.404Z,100405.80
2018-09-28T02:54:41.074Z,100406.97
2018-09-28T02:57:10.717Z,100406.33
2018-09-28T02:59:40.373Z,100406.16
2018-09-28T03:02:10.000Z,100410.19
2018-09-28T03:04:39.683Z,100408.20
2018-09-28T03:07:09.331Z,100410.72
2018-09-28T03:09:38.981Z,100405.01
2018-09-28T03:12:08.642Z,100408.22
2018-09-28T03:14:38.311Z,100408.59
2018-09-28T03:17:07.950Z,100408.79
2018-09-28T03:19:37.612Z,100407.28
2018-09-28T03:22:07.306Z,100407.95
2018-09-28T03:24:36.961Z,100419.39
2018-09-28T03:27:06.687Z,100417.70
2018-09-28T03:29:36.345Z,100418.56
2018-09-28T03:32:06.019Z,100409.00
2018-09-28T03:34:35.689Z,100416.89
2018-09-28T03:37:05.329Z,100428.98
2018-09-28T03:39:34.992Z,100422.27
2018-09-28T03:42:04.632Z,100420.63
2018-09-28T03:44:34.285Z,100427.52
2018-09-28T03:47:04.020Z,100426.17
2018-09-28T03:49:33.692Z,100429.36
2018-09-28T03:52:03.341Z,100420.13
2018-09-28T03:54:33.009Z,100429.05
2018-09-28T03:57:02.660Z,100430.22
2018-09-28T03:59:32.324Z,100431.73
2018-09-28T04:02:02.073Z,100423.01
2018-09-28T04:04:31.769Z,100430.06
2018-09-28T04:07:01.430Z,100431.25
2018-09-28T04:09:31.120Z,100432.77
2018-09-28T04:12:00.822Z,100435.80
2018-09-28T04:14:30.561Z,100433.77
2018-09-28T04:17:00.300Z,100442.69
2018-09-28T04:19:30.136Z,100441.34
2018-09-28T04:22:01.255Z,100446.87
2018-09-28T04:24:32.357Z,100447.70
2018-09-28T04:27:02.175Z,100447.52
2018-09-28T04:29:31.909Z,100449.73
2018-09-28T04:32:01.617Z,100452.42
2018-09-28T04:34:31.401Z,100452.75
2018-09-28T04:37:01.073Z,100454.95
2018-09-28T04:39:30.781Z,100453.78
2018-09-28T04:42:00.481Z,100454.27
2018-09-28T04:44:30.180Z,100458.13
2018-09-28T04:46:59.853Z,100469.38
2018-09-28T04:49:29.748Z,100468.21
2018-09-28T04:51:59.430Z,100469.20
2018-09-28T04:54:29.200Z,100474.92
2018-09-28T04:56:58.889Z,100482.62
2018-09-28T04:59:28.616Z,100480.80
2018-09-28T05:01:58.618Z,100487.17
2018-09-28T05:04:28.293Z,100487.71
2018-09-28T05:06:57.980Z,100493.56
2018-09-28T05:09:27.770Z,100496.59
2018-09-28T05:11:57.526Z,100495.59
2018-09-28T05:14:27.372Z,100508.51
2018-09-28T05:16:57.074Z,100502.31
2018-09-28T05:19:26.813Z,100504.48
2018-09-28T05:21:56.489Z,100508.03
2018-09-28T05:24:26.213Z,100515.40
2018-09-28T05:26:56.045Z,100519.95
2018-09-28T05:29:25.723Z,100523.80
2018-09-28T05:31:55.652Z,100522.98
2018-09-28T05:34:25.214Z,100527.50
2018-09-28T05:36:55.001Z,100529.17
2018-09-28T05:39:24.726Z,100536.07
2018-09-28T05:41:54.497Z,100537.76
2018-09-28T05:44:24.169Z,100546.00
2018-09-28T05:46:53.866Z,100548.34
2018-09-28T05:49:23.505Z,100554.25
2018-09-28T05:51:53.196Z,100555.06
2018-09-28T05:54:22.925Z,100558.45
2018-09-28T05:56:52.633Z,100564.66
2018-09-28T05:59:27.405Z,100566.19
2018-09-28T06:02:02.218Z,100569.09
2018-09-28T06:04:37.086Z,100573.77
2018-09-28T06:07:06.828Z,100573.59
2018-09-28T06:09:36.469Z,100580.63
2018-09-28T06:12:06.197Z,100589.36
2018-09-28T06:14:35.845Z,100591.53
2018-09-28T06:17:05.737Z,100594.41
2018-09-28T06:19:35.408Z,100601.09
2018-09-28T06:22:05.100Z,100601.08
2018-09-28T06:24:34.750Z,100612.82
2018-09-28T06:27:04.508Z,100616.84
2018-09-28T06:29:34.170Z,100625.60
2018-09-28T06:32:03.853Z,100622.36
2018-09-28T06:34:33.497Z,100627.03
2018-09-28T06:37:03.170Z,100627.55
2018-09-28T06:39:32.842Z,100631.23
2018-09-28T06:42:02.579Z,100631.39
2018-09-28T06:44:32.258Z,100644.28
2018-09-28T06:47:01.929Z,100646.95
2018-09-28T06:49:31.581Z,100653.49
2018-09-28T06:52:01.237Z,100648.66
2018-09-28T06:54:30.875Z,100661.77
2018-09-28T06:57:00.524Z,100660.61
2018-09-28T06:59:30.165Z,100666.19
2018-09-28T07:01:59.829Z,100678.27
2018-09-28T07:04:29.462Z,100677.79
2018-09-28T07:06:59.139Z,100687.03
2018-09-28T07:09:28.833Z,100693.09
2018-09-28T07:11:58.591Z,100703.16
2018-09-28T07:14:28.216Z,100700.16
2018-09-28T07:16:57.878Z,100702.78
2018-09-28T07:19:27.517Z,100709.69
2018-09-28T07:21:57.180Z,100713.09
2018-09-28T07:24:27.820Z,100708.20
2018-09-28T07:26:57.439Z,100714.27
2018-09-28T07:29:27.109Z,100711.42
2018-09-28T07:31:56.760Z,100719.34
2018-09-28T07:34:26.590Z,100727.41
2018-09-28T07:36:56.355Z,100727.44
2018-09-28T07:39:26.341Z,100741.20
2018-09-28T07:41:56.118Z,100748.66
2018-09-28T07:44:25.713Z,100741.98
2018-09-28T07:46:55.377Z,100751.30
2018-09-28T07:49:24.997Z,100752.23
2018-09-28T07:51:54.662Z,100755.41
2018-09-28T07:54:24.311Z,100763.78
2018-09-28T07:56:53.960Z,100768.28
2018-09-28T07:59:23.648Z,100773.65
2018-09-28T08:01:53.338Z,100767.26
2018-09-28T08:04:23.105Z,100770.45
2018-09-28T08:06:52.788Z,100775.87
2018-09-28T08:09:22.436Z,100773.52
2018-09-28T08:11:52.168Z,100779.94
2018-09-28T08:14:21.817Z,100776.55
2018-09-28T08:16:51.481Z,100789.80
2018-09-28T08:19:21.145Z,100786.27
2018-09-28T08:21:50.829Z,100788.95
2018-09-28T08:24:20.469Z,100790.72
2018-09-28T08:26:50.153Z,100800.50
2018-09-28T08:29:19.825Z,100808.27
2018-09-28T08:31:49.490Z,100804.75
2018-09-28T08:34:19.130Z,100808.61
2018-09-28T08:36:48.848Z,100826.92
2018-09-28T08:39:18.477Z,100822.48
2018-09-28T08:41:48.202Z,100825.83
2018-09-28T08:44:17.823Z,100820.94
2018-09-28T08:46:47.489Z,100831.69
2018-09-28T08:49:17.181Z,100824.34
2018-09-28T08:51:46.841Z,100822.03
2018-09-28T08:54:16.497Z,100822.84
2018-09-28T08:56:46.159Z,100826.34
2018-09-28T08:59:15.789Z,100831.25
2018-09-28T09:01:45.457Z,100833.94
2018-09-28T09:04:15.101Z,100846.74
2018-09-28T09:06:44.756Z,100846.09
2018-09-28T09:09:14.573Z,100848.82
2018-09-28T09:11:44.230Z,100841.13
2018-09-28T09:14:13.864Z,100842.81
2018-09-28T09:16:43.536Z,100839.27
2018-09-28T09:19:13.228Z,100852.38
2018-09-28T09:21:42.889Z,100853.99
2018-09-28T09:24:12.532Z,100850.08
2018-09-28T09:26:42.202Z,100852.44
2018-09-28T09:29:11.901Z,100848.13
2018-09-28T09:31:41.572Z,100846.50
2018-09-28T09:34:11.305Z,100843.22
2018-09-28T09:36:41.078Z,100844.84
2018-09-28T09:39:11.336Z,100850.08
2018-09-28T09:41:41.037Z,100839.73
2018-09-28T09:44:10.809Z,100840.13
2018-09-28T09:46:40.456Z,100846.54
2018-09-28T09:49:10.105Z,100843.53
2018-09-28T09:51:39.773Z,100847.93
2018-09-28T09:54:09.413Z,100844.58
2018-09-28T09:56:39.073Z,100849.11
2018-09-28T09:59:08.751Z,100854.84
2018-09-28T10:01:43.497Z,100852.66
2018-09-28T10:04:13.135Z,100859.23
2018-09-28T10:06:42.800Z,100863.09
2018-09-28T10:09:13.934Z,100866.31
2018-09-28T10:11:43.608Z,100855.70
2018-09-28T10:14:13.257Z,100850.48
2018-09-28T10:16:42.940Z,100849.63
2018-09-28T10:19:12.583Z,100849.79
2018-09-28T10:21:42.264Z,100847.61
2018-09-28T10:24:11.909Z,100850.64
2018-09-28T10:26:41.581Z,100853.86
2018-09-28T10:29:11.228Z,100857.55
2018-09-28T10:31:40.894Z,100851.99
2018-09-28T10:34:10.555Z,100839.20
2018-09-28T10:36:40.325Z,100855.69
2018-09-28T10:39:10.221Z,100856.89
2018-09-28T10:41:39.932Z,100851.66
2018-09-28T10:44:09.576Z,100852.67
2018-09-28T10:46:39.248Z,100844.87
2018-09-28T10:49:08.952Z,100845.23
2018-09-28T10:51:38.680Z,100837.46
2018-09-28T10:54:08.277Z,100847.08
2018-09-28T10:56:37.959Z,100850.20
2018-09-28T10:59:07.685Z,100851.16
2018-09-28T11:01:37.425Z,100846.31
2018-09-28T11:04:07.108Z,100838.27
2018-09-28T11:06:36.818Z,100844.58
2018-09-28T11:09:09.633Z,100843.03
2018-09-28T11:11:39.652Z,100844.98
2018-09-28T11:14:09.335Z,100837.13
2018-09-28T11:16:39.391Z,100839.12
2018-09-28T11:19:09.044Z,100840.86
2018-09-28T11:21:38.753Z,100838.05
2018-09-28T11:24:08.384Z,100845.53
2018-09-28T11:26:38.048Z,100849.73
2018-09-28T11:29:07.726Z,100845.86
2018-09-28T11:31:37.400Z,100843.80
2018-09-28T11:34:07.044Z,100846.50
2018-09-28T11:36:36.708Z,100843.70
2018-09-28T11:39:07.221Z,100838.89
2018-09-28T11:41:36.889Z,100834.47
2018-09-28T11:44:06.553Z,100833.98
2018-09-28T11:46:36.215Z,100839.22
2018-09-28T11:49:05.923Z,100839.20
2018-09-28T11:51:35.935Z,100843.41
2018-09-28T11:54:05.596Z,100841.44
2018-09-28T11:56:35.273Z,100856.11
2018-09-28T11:59:04.950Z,100849.12
2018-09-28T12:01:34.595Z,100844.20
2018-09-28T12:04:04.264Z,100844.83
2018-09-28T12:06:34.044Z,100840.36
2018-09-28T12:09:04.851Z,100842.12
2018-09-28T12:11:34.496Z,100825.98
2018-09-28T12:14:04.220Z,100833.84
2018-09-28T12:16:33.861Z,100826.41
2018-09-28T12:19:03.584Z,100831.16
2018-09-28T12:21:33.275Z,100824.05
2018-09-28T12:24:02.944Z,100826.64
2018-09-28T12:26:32.599Z,100827.23
2018-09-28T12:29:02.329Z,100831.49
2018-09-28T12:31:31.960Z,100832.52
2018-09-28T12:34:01.580Z,100832.30
2018-09-28T12:36:31.276Z,100837.89
2018-09-28T12:39:01.143Z,100845.70
2018-09-28T12:41:30.800Z,100839.41
2018-09-28T12:44:00.477Z,100847.52
2018-09-28T12:46:30.110Z,100843.46
2018-09-28T12:48:59.729Z,100846.59
2018-09-28T12:51:29.400Z,100846.64
2018-09-28T12:53:59.033Z,100849.50
2018-09-28T12:56:28.798Z,100856.38
2018-09-28T12:58:58.468Z,100848.70
2018-09-28T13:01:28.088Z,100843.98
2018-09-28T13:03:57.720Z,100849.72
2018-09-28T13:06:27.422Z,100854.11
2018-09-28T13:08:57.077Z,100861.11
2018-09-28T13:11:26.710Z,100866.44
2018-09-28T13:13:56.376Z,100866.88
2018-09-28T13:16:26.013Z,100872.25
2018-09-28T13:18:55.641Z,100870.97
2018-09-28T13:21:25.321Z,100866.80
2018-09-28T13:23:54.963Z,100865.30
2018-09-28T13:26:24.670Z,100863.05
2018-09-28T13:28:54.308Z,100865.95
2018-09-28T13:31:24.293Z,100862.42
2018-09-28T13:33:53.972Z,100865.71
2018-09-28T13:36:24.045Z,100878.13
2018-09-28T13:38:53.727Z,100877.05
2018-09-28T13:41:23.338Z,100873.61
2018-09-28T13:43:52.996Z,100874.98
2018-09-28T13:46:22.672Z,100879.76
2018-09-28T13:48:52.399Z,100878.75
2018-09-28T13:51:22.025Z,100874.28
2018-09-28T13:53:51.748Z,100871.09
2018-09-28T13:56:21.419Z,100873.11
2018-09-28T13:58:51.024Z,100875.33
2018-09-28T14:01:20.660Z,100887.02
2018-09-28T14:03:50.351Z,100883.48
2018-09-28T14:06:20.124Z,100882.23
2018-09-28T14:08:49.692Z,100884.69
2018-09-28T14:11:19.353Z,100890.23
2018-09-28T14:13:49.008Z,100893.08
2018-09-28T14:16:18.711Z,100885.48
2018-09-28T14:18:48.376Z,100874.72
2018-09-28T14:21:18.030Z,100886.42
2018-09-28T14:23:47.682Z,100886.06
2018-09-28T14:26:17.455Z,100891.70
2018-09-28T14:28:47.110Z,100891.30
2018-09-28T14:31:16.732Z,100896.52
2018-09-28T14:33:46.410Z,100891.84
2018-09-28T14:36:16.138Z,100897.12
2018-09-28T14:38:45.739Z,100895.38
2018-09-28T14:41:15.737Z,100905.49
2018-09-28T14:43:45.373Z,100893.30
2018-09-28T14:46:15.047Z,100898.03
2018-09-28T14:48:44.785Z,100900.03
2018-09-28T14:51:14.372Z,100898.47
2018-09-28T14:53:44.055Z,100902.77
2018-09-28T14:56:13.679Z,100903.51
2018-09-28T14:58:43.370Z,100900.33
2018-09-28T15:01:13.598Z,100910.47
2018-09-28T15:03:43.232Z,100909.50
2018-09-28T15:06:12.907Z,100908.94
2018-09-28T15:08:42.867Z,100907.77
2018-09-28T15:11:12.521Z,100907.45
2018-09-28T15:13:42.202Z,100916.59
2018-09-28T15:16:11.851Z,100921.52
2018-09-28T15:18:41.605Z,100918.87
2018-09-28T15:21:11.280Z,100928.69
2018-09-28T15:23:41.012Z,100930.54
2018-09-28T15:26:10.648Z,100937.31
2018-09-28T15:28:40.412Z,100930.88
2018-09-28T15:31:10.130Z,100932.58
2018-09-28T15:33:39.779Z,100940.81
2018-09-28T15:36:09.460Z,100929.86
2018-09-28T15:38:39.096Z,100938.44
2018-09-28T15:41:08.968Z,100937.25
2018-09-28T15:43:38.948Z,100931.52
2018-09-28T15:46:08.644Z,100944.30
2018-09-28T15:48:38.340Z,100946.00
2018-09-28T15:51:08.293Z,100948.87
2018-09-28T15:53:38.184Z,100943.13
2018-09-28T15:56:08.395Z,100938.60
2018-09-28T15:58:38.064Z,100945.81
2018-09-28T16:01:08.172Z,100941.25
2018-09-28T16:03:38.228Z,100944.59
2018-09-28T16:06:07.939Z,100945.75
2018-09-28T16:08:37.588Z,100954.02
2018-09-28T16:11:07.380Z,100950.14
2018-09-28T16:13:37.080Z,100952.47
2018-09-28T16:16:06.720Z,100953.62
2018-09-28T16:18:36.494Z,100955.26
2018-09-28T16:21:06.232Z,100969.05
2018-09-28T16:23:36.619Z,100968.16
2018-09-28T16:26:07.381Z,100964.27
2018-09-28T16:28:37.106Z,100968.26
2018-09-28T16:31:06.916Z,100978.63
2018-09-28T16:33:36.756Z,100981.85
2018-09-28T16:36:06.550Z,100995.44
2018-09-28T16:38:36.168Z,100991.90
2018-09-28T16:41:06.007Z,100994.56
2018-09-28T16:43:35.692Z,100997.86
2018-09-28T16:46:05.369Z,101003.88
2018-09-28T16:48:35.044Z,101004.72
2018-09-28T16:51:04.680Z,101012.61
2018-09-28T16:53:34.319Z,101012.70
2018-09-28T16:56:03.995Z,101017.20
2018-09-28T16:58:33.636Z,101018.00
2018-09-28T17:01:03.307Z,101019.34
2018-09-28T17:03:33.013Z,101027.35
2018-09-28T17:06:02.621Z,101028.91
2018-09-28T17:08:32.324Z,101037.59
2018-09-28T17:11:01.987Z,101032.72
2018-09-28T17:13:31.608Z,101047.16
2018-09-28T17:16:01.285Z,101044.43
2018-09-28T17:18:30.892Z,101041.31
2018-09-28T17:21:00.529Z,101051.83
2018-09-28T17:23:30.198Z,101051.23
2018-09-28T17:26:00.444Z,101042.30
2018-09-28T17:28:30.397Z,101060.91
2018-09-28T17:31:00.409Z,101055.29
2018-09-28T17:33:30.200Z,101050.94
2018-09-28T17:35:59.863Z,101055.75
2018-09-28T17:38:29.637Z,101057.33
2018-09-28T17:40:59.324Z,101058.19
2018-09-28T17:43:28.964Z,101067.03
2018-09-28T17:45:58.606Z,101065.69
2018-09-28T17:48:28.391Z,101067.25
2018-09-28T17:50:58.013Z,101074.78
2018-09-28T17:53:27.633Z,101082.64
2018-09-28T17:55:57.296Z,101076.86
2018-09-28T17:58:26.936Z,101087.59
2018-09-28T18:00:56.571Z,101089.00
2018-09-28T18:03:26.235Z,101090.08
2018-09-28T18:05:55.848Z,101093.37
2018-09-28T18:08:25.640Z,101097.19
2018-09-28T18:10:55.403Z,101107.06
2018-09-28T18:13:25.048Z,101106.46
2018-09-28T18:15:54.671Z,101105.17
2018-09-28T18:18:24.348Z,101109.35
2018-09-28T18:20:54.061Z,101108.84
2018-09-28T18:23:23.723Z,101107.66
2018-09-28T18:25:53.400Z,101117.54
2018-09-28T18:28:23.122Z,101122.78
2018-09-28T18:30:52.752Z,101120.96
2018-09-28T18:33:22.620Z,101125.18
2018-09-28T18:35:52.659Z,101128.37
2018-09-28T18:38:22.300Z,101125.47
2018-09-28T18:40:51.932Z,101139.14
2018-09-28T18:43:21.613Z,101136.39
2018-09-28T18:45:51.264Z,101140.48
2018-09-28T18:48:20.926Z,101138.78
2018-09-28T18:50:50.618Z,101140.97
2018-09-28T18:53:20.328Z,101144.41
2018-09-28T18:55:50.083Z,101146.62
2018-09-28T18:58:19.728Z,101159.14
2018-09-28T19:00:49.383Z,101166.47
2018-09-28T19:03:19.050Z,101161.33
2018-09-28T19:05:48.718Z,101172.98
2018-09-28T19:08:18.413Z,101172.98
2018-09-28T19:10:48.092Z,101176.53
2018-09-28T19:13:17.720Z,101177.00
2018-09-28T19:15:47.420Z,101171.28
2018-09-28T19:18:17.509Z,101175.22
2018-09-28T19:20:47.196Z,101174.52
2018-09-28T19:23:16.832Z,101182.03
2018-09-28T19:25:46.460Z,101178.55
2018-09-28T19:28:16.116Z,101190.30
2018-09-28T19:30:45.787Z,101184.05
2018-09-28T19:33:15.551Z,101184.58
2018-09-28T19:35:45.284Z,101189.45
2018-09-28T19:38:15.056Z,101194.51
2018-09-28T19:40:44.728Z,101190.52
2018-09-28T19:43:14.344Z,101196.98
2018-09-28T19:45:44.014Z,101194.53
2018-09-28T19:48:13.648Z,101195.28
2018-09-28T19:50:43.304Z,101199.44
2018-09-28T19:53:12.960Z,101193.24
2018-09-28T19:55:42.722Z,101199.62
2018-09-28T19:58:12.500Z,101209.60
2018-09-28T20:00:42.145Z,101213.89
2018-09-28T20:03:11.810Z,101214.41
2018-09-28T20:05:41.456Z,101210.95
2018-09-28T20:08:11.094Z,101215.14
2018-09-28T20:10:40.751Z,101219.52
2018-09-28T20:13:10.384Z,101222.20
2018-09-28T20:15:40.047Z,101223.41
2018-09-28T20:18:09.684Z,101225.85
2018-09-28T20:20:39.338Z,101231.24
2018-09-28T20:23:08.983Z,101226.98
2018-09-28T20:25:38.645Z,101230.00
2018-09-28T20:28:08.300Z,101232.44
2018-09-28T20:30:37.964Z,101232.81
2018-09-28T20:33:07.907Z,101235.99
2018-09-28T20:35:37.568Z,101243.28
2018-09-28T20:38:07.248Z,101241.71
2018-09-28T20:40:36.935Z,101231.05
2018-09-28T20:43:06.623Z,101237.37
2018-09-28T20:45:36.284Z,101236.53
2018-09-28T20:48:05.948Z,101243.59
2018-09-28T20:50:35.620Z,101244.35
2018-09-28T20:53:05.245Z,101246.78
2018-09-28T20:55:34.962Z,101251.90
2018-09-28T20:58:04.560Z,101260.32
2018-09-28T21:00:34.232Z,101264.33
2018-09-28T21:03:03.860Z,101265.45
2018-09-28T21:05:33.577Z,101268.47
2018-09-28T21:08:03.282Z,101266.30
2018-09-28T21:10:32.935Z,101260.20
2018-09-28T21:13:02.563Z,101267.41
2018-09-28T21:15:32.208Z,101269.98
2018-09-28T21:18:01.884Z,101276.42
2018-09-28T21:20:31.556Z,101279.05
2018-09-28T21:23:01.199Z,101274.91
2018-09-28T21:25:31.096Z,101280.03
2018-09-28T21:28:00.736Z,101281.13
2018-09-28T21:30:30.391Z,101281.52
2018-09-28T21:33:00.017Z,101284.41
2018-09-28T21:35:29.824Z,101290.75
2018-09-28T21:37:59.440Z,101291.70
2018-09-28T21:40:29.092Z,101295.84
2018-09-28T21:42:58.724Z,101297.55
2018-09-28T21:45:28.400Z,101302.77
2018-09-28T21:47:58.036Z,101291.12
2018-09-28T21:50:27.688Z,101294.38
2018-09-28T21:52:57.339Z,101295.34
2018-09-28T21:55:26.992Z,101298.15
2018-09-28T21:57:56.630Z,101297.04
2018-09-28T22:00:26.305Z,101307.59
2018-09-28T22:02:55.911Z,101307.84
2018-09-28T22:05:25.532Z,101312.20
2018-09-28T22:07:55.178Z,101313.16
2018-09-28T22:10:24.832Z,101307.47
2018-09-28T22:12:54.523Z,101312.69
2018-09-28T22:15:24.168Z,101303.69
2018-09-28T22:17:53.809Z,101305.27
2018-09-28T22:20:23.428Z,101307.31
2018-09-28T22:22:53.063Z,101312.66
2018-09-28T22:25:22.684Z,101309.27
2018-09-28T22:27:52.332Z,101315.95
2018-09-28T22:30:21.956Z,101315.08
2018-09-28T22:32:51.616Z,101320.66
2018-09-28T22:35:21.275Z,101316.87
2018-09-28T22:37:50.924Z,101317.48
2018-09-28T22:40:20.568Z,101316.86
2018-09-28T22:42:50.219Z,101313.94
2018-09-28T22:45:20.050Z,101311.59
2018-09-28T22:47:49.696Z,101315.34
2018-09-28T22:50:19.353Z,101315.84
2018-09-28T22:52:49.004Z,101326.78
2018-09-28T22:55:18.616Z,101323.52
2018-09-28T22:57:48.261Z,101323.58
2018-09-28T23:00:17.912Z,101318.95
2018-09-28T23:02:47.864Z,101322.81
2018-09-28T23:05:17.503Z,101318.66
2018-09-28T23:07:47.148Z,101314.14
2018-09-28T23:10:16.787Z,101318.16
2018-09-28T23:12:46.448Z,101316.71
2018-09-28T23:15:16.093Z,101312.95
2018-09-28T23:17:45.745Z,101318.05
2018-09-28T23:20:15.376Z,101331.36
2018-09-28T23:22:45.066Z,101332.84
2018-09-28T23:25:14.694Z,101329.40
2018-09-28T23:27:44.355Z,101333.40
2018-09-28T23:30:13.989Z,101333.28
2018-09-28T23:32:43.620Z,101331.11
2018-09-28T23:35:13.264Z,101329.44
2018-09-28T23:37:42.923Z,101336.11
2018-09-28T23:40:12.548Z,101335.41
2018-09-28T23:42:42.202Z,101337.73
2018-09-28T23:45:11.816Z,101340.23
2018-09-28T23:47:41.517Z,101336.75
2018-09-28T23:50:11.127Z,101341.04
2018-09-28T23:52:40.769Z,101345.41
2018-09-28T23:55:10.400Z,101348.31
2018-09-28T23:57:40.028Z,101347.53
